sensor_id;sensor_type;location;lat;lon;timestamp;pressure;altitude;pressure_sealevel;temperature;humidity
78407;BME280;67692;51.074;-1.790;2023-06-10T00:00:54;100673.88;;;19.32;64.84
78407;BME280;67692;51.074;-1.790;2023-06-10T00:03:21;100674.00;;;19.23;65.15
78407;BME280;67692;51.074;-1.790;2023-06-10T00:05:49;100684.50;;;19.23;65.07
78407;BME280;67692;51.074;-1.790;2023-06-10T00:08:17;100671.06;;;19.18;65.25
78407;BME280;67692;51.074;-1.790;2023-06-10T00:10:45;100672.38;;;19.14;65.54
78407;BME280;67692;51.074;-1.790;2023-06-10T00:13:11;100673.66;;;19.01;65.78
78407;BME280;67692;51.074;-1.790;2023-06-10T00:15:38;100671.84;;;19.02;65.88
78407;BME280;67692;51.074;-1.790;2023-06-10T00:18:05;100668.72;;;18.98;65.88
78407;BME280;67692;51.074;-1.790;2023-06-10T00:20:35;100670.84;;;18.95;66.14
78407;BME280;67692;51.074;-1.790;2023-06-10T00:23:02;100667.25;;;18.96;66.07
78407;BME280;67692;51.074;-1.790;2023-06-10T00:25:33;100670.84;;;18.87;65.92
78407;BME280;67692;51.074;-1.790;2023-06-10T00:27:59;100664.09;;;18.84;66.21
78407;BME280;67692;51.074;-1.790;2023-06-10T00:30:26;100666.53;;;18.69;66.47
78407;BME280;67692;51.074;-1.790;2023-06-10T00:32:53;100657.09;;;18.59;66.92
78407;BME280;67692;51.074;-1.790;2023-06-10T00:35:19;100659.53;;;18.52;67.24
78407;BME280;67692;51.074;-1.790;2023-06-10T00:37:46;100653.00;;;18.56;67.10
78407;BME280;67692;51.074;-1.790;2023-06-10T00:40:13;100660.53;;;18.59;66.74
78407;BME280;67692;51.074;-1.790;2023-06-10T00:42:41;100649.34;;;18.49;66.97
78407;BME280;67692;51.074;-1.790;2023-06-10T00:45:08;100648.69;;;18.47;67.20
78407;BME280;67692;51.074;-1.790;2023-06-10T00:47:35;100655.56;;;18.40;67.36
78407;BME280;67692;51.074;-1.790;2023-06-10T00:50:01;100641.78;;;18.38;67.47
78407;BME280;67692;51.074;-1.790;2023-06-10T00:52:29;100642.41;;;18.32;67.59
78407;BME280;67692;51.074;-1.790;2023-06-10T00:54:56;100642.13;;;18.43;67.14
78407;BME280;67692;51.074;-1.790;2023-06-10T00:57:24;100643.75;;;18.44;67.02
78407;BME280;67692;51.074;-1.790;2023-06-10T00:59:52;100642.28;;;18.41;67.03
78407;BME280;67692;51.074;-1.790;2023-06-10T01:02:18;100646.06;;;18.47;67.07
78407;BME280;67692;51.074;-1.790;2023-06-10T01:04:45;100645.06;;;18.40;67.07
78407;BME280;67692;51.074;-1.790;2023-06-10T01:07:17;100647.31;;;18.35;66.96
78407;BME280;67692;51.074;-1.790;2023-06-10T01:09:54;100640.13;;;18.37;66.94
78407;BME280;67692;51.074;-1.790;2023-06-10T01:12:28;100644.69;;;18.27;67.27
78407;BME280;67692;51.074;-1.790;2023-06-10T01:14:59;100643.34;;;18.23;67.08
78407;BME280;67692;51.074;-1.790;2023-06-10T01:17:25;100648.22;;;18.18;67.58
78407;BME280;67692;51.074;-1.790;2023-06-10T01:19:54;100642.91;;;18.01;68.11
78407;BME280;67692;51.074;-1.790;2023-06-10T01:22:23;100646.66;;;17.99;68.12
78407;BME280;67692;51.074;-1.790;2023-06-10T01:24:51;100643.06;;;18.00;68.26
78407;BME280;67692;51.074;-1.790;2023-06-10T01:27:21;100647.63;;;17.98;68.14
78407;BME280;67692;51.074;-1.790;2023-06-10T01:29:51;100642.38;;;17.98;68.29
78407;BME280;67692;51.074;-1.790;2023-06-10T01:32:27;100638.13;;;17.97;67.97
78407;BME280;67692;51.074;-1.790;2023-06-10T01:34:55;100642.84;;;17.93;67.92
78407;BME280;67692;51.074;-1.790;2023-06-10T01:37:24;100644.19;;;17.97;67.86
78407;BME280;67692;51.074;-1.790;2023-06-10T01:39:54;100645.09;;;17.88;68.35
78407;BME280;67692;51.074;-1.790;2023-06-10T01:42:21;100640.84;;;17.87;68.34
78407;BME280;67692;51.074;-1.790;2023-06-10T01:44:48;100636.25;;;17.89;68.01
78407;BME280;67692;51.074;-1.790;2023-06-10T01:47:14;100640.84;;;17.87;68.22
78407;BME280;67692;51.074;-1.790;2023-06-10T01:49:41;100642.63;;;17.87;67.99
78407;BME280;67692;51.074;-1.790;2023-06-10T01:52:08;100644.94;;;17.90;67.95
78407;BME280;67692;51.074;-1.790;2023-06-10T01:54:36;100645.56;;;17.83;68.24
78407;BME280;67692;51.074;-1.790;2023-06-10T01:57:03;100640.50;;;17.82;68.24
78407;BME280;67692;51.074;-1.790;2023-06-10T01:59:31;100639.19;;;17.86;68.16
78407;BME280;67692;51.074;-1.790;2023-06-10T02:01:58;100642.94;;;17.83;68.28
78407;BME280;67692;51.074;-1.790;2023-06-10T02:04:24;100645.72;;;17.82;67.99
78407;BME280;67692;51.074;-1.790;2023-06-10T02:06:51;100642.78;;;17.85;68.24
78407;BME280;67692;51.074;-1.790;2023-06-10T02:09:18;100647.97;;;17.77;68.36
78407;BME280;67692;51.074;-1.790;2023-06-10T02:11:46;100647.16;;;17.76;68.36
78407;BME280;67692;51.074;-1.790;2023-06-10T02:14:13;100646.63;;;17.73;68.50
78407;BME280;67692;51.074;-1.790;2023-06-10T02:16:39;100645.31;;;17.69;68.38
78407;BME280;67692;51.074;-1.790;2023-06-10T02:19:06;100647.50;;;17.64;68.63
78407;BME280;67692;51.074;-1.790;2023-06-10T02:21:33;100638.28;;;17.69;68.45
78407;BME280;67692;51.074;-1.790;2023-06-10T02:23:59;100644.03;;;17.73;68.04
78407;BME280;67692;51.074;-1.790;2023-06-10T02:26:26;100641.41;;;17.73;68.10
78407;BME280;67692;51.074;-1.790;2023-06-10T02:28:54;100633.03;;;17.69;68.15
78407;BME280;67692;51.074;-1.790;2023-06-10T02:31:21;100635.56;;;17.61;68.26
78407;BME280;67692;51.074;-1.790;2023-06-10T02:33:48;100649.16;;;17.65;68.46
78407;BME280;67692;51.074;-1.790;2023-06-10T02:36:15;100640.34;;;17.66;67.94
78407;BME280;67692;51.074;-1.790;2023-06-10T02:38:42;100640.34;;;17.66;68.25
78407;BME280;67692;51.074;-1.790;2023-06-10T02:41:08;100648.63;;;17.61;68.16
78407;BME280;67692;51.074;-1.790;2023-06-10T02:43:35;100640.44;;;17.56;68.13
78407;BME280;67692;51.074;-1.790;2023-06-10T02:46:03;100647.09;;;17.50;68.40
78407;BME280;67692;51.074;-1.790;2023-06-10T02:48:29;100647.09;;;17.50;68.30
78407;BME280;67692;51.074;-1.790;2023-06-10T02:50:56;100659.00;;;17.45;68.26
78407;BME280;67692;51.074;-1.790;2023-06-10T02:53:22;100651.09;;;17.37;68.76
78407;BME280;67692;51.074;-1.790;2023-06-10T02:55:49;100660.03;;;17.34;68.73
78407;BME280;67692;51.074;-1.790;2023-06-10T02:58:16;100660.34;;;17.31;68.75
78407;BME280;67692;51.074;-1.790;2023-06-10T03:00:42;100661.38;;;17.20;69.10
78407;BME280;67692;51.074;-1.790;2023-06-10T03:03:11;100665.28;;;17.16;69.15
78407;BME280;67692;51.074;-1.790;2023-06-10T03:05:38;100659.06;;;17.17;69.11
78407;BME280;67692;51.074;-1.790;2023-06-10T03:08:05;100665.34;;;17.07;69.02
78407;BME280;67692;51.074;-1.790;2023-06-10T03:10:32;100667.88;;;16.99;69.49
78407;BME280;67692;51.074;-1.790;2023-06-10T03:12:58;100664.28;;;16.82;70.12
78407;BME280;67692;51.074;-1.790;2023-06-10T03:15:25;100662.00;;;16.69;70.43
78407;BME280;67692;51.074;-1.790;2023-06-10T03:17:54;100662.53;;;16.73;70.54
78407;BME280;67692;51.074;-1.790;2023-06-10T03:20:22;100661.84;;;16.61;70.52
78407;BME280;67692;51.074;-1.790;2023-06-10T03:22:48;100654.16;;;16.59;70.73
78407;BME280;67692;51.074;-1.790;2023-06-10T03:25:15;100661.31;;;16.67;70.52
78407;BME280;67692;51.074;-1.790;2023-06-10T03:27:42;100662.81;;;16.60;70.64
78407;BME280;67692;51.074;-1.790;2023-06-10T03:30:10;100654.97;;;16.60;70.73
78407;BME280;67692;51.074;-1.790;2023-06-10T03:32:37;100654.69;;;16.63;70.60
78407;BME280;67692;51.074;-1.790;2023-06-10T03:35:05;100656.78;;;16.69;70.35
78407;BME280;67692;51.074;-1.790;2023-06-10T03:37:33;100659.78;;;16.64;70.24
78407;BME280;67692;51.074;-1.790;2023-06-10T03:39:59;100652.78;;;16.65;70.30
78407;BME280;67692;51.074;-1.790;2023-06-10T03:42:26;100649.91;;;16.68;70.12
78407;BME280;67692;51.074;-1.790;2023-06-10T03:44:53;100659.53;;;16.58;70.44
78407;BME280;67692;51.074;-1.790;2023-06-10T03:47:20;100654.00;;;16.61;70.40
78407;BME280;67692;51.074;-1.790;2023-06-10T03:49:47;100664.88;;;16.66;70.04
78407;BME280;67692;51.074;-1.790;2023-06-10T03:52:13;100657.31;;;16.63;70.08
78407;BME280;67692;51.074;-1.790;2023-06-10T03:54:41;100653.75;;;16.64;69.76
78407;BME280;67692;51.074;-1.790;2023-06-10T03:57:08;100654.56;;;16.64;69.58
78407;BME280;67692;51.074;-1.790;2023-06-10T03:59:34;100657.38;;;16.53;69.83
78407;BME280;67692;51.074;-1.790;2023-06-10T04:02:01;100651.69;;;16.58;70.13
78407;BME280;67692;51.074;-1.790;2023-06-10T04:04:30;100652.38;;;16.60;69.74
78407;BME280;67692;51.074;-1.790;2023-06-10T04:06:56;100653.50;;;16.57;69.65
78407;BME280;67692;51.074;-1.790;2023-06-10T04:09:23;100650.19;;;16.55;69.79
78407;BME280;67692;51.074;-1.790;2023-06-10T04:11:51;100652.69;;;16.47;70.03
78407;BME280;67692;51.074;-1.790;2023-06-10T04:14:17;100651.88;;;16.47;70.15
78407;BME280;67692;51.074;-1.790;2023-06-10T04:16:44;100637.09;;;16.38;69.94
78407;BME280;67692;51.074;-1.790;2023-06-10T04:19:10;100650.00;;;16.39;70.16
78407;BME280;67692;51.074;-1.790;2023-06-10T04:21:37;100652.69;;;16.47;69.95
78407;BME280;67692;51.074;-1.790;2023-06-10T04:24:04;100653.41;;;16.49;69.95
78407;BME280;67692;51.074;-1.790;2023-06-10T04:26:31;100662.91;;;16.50;69.85
78407;BME280;67692;51.074;-1.790;2023-06-10T04:28:58;100658.38;;;16.43;70.12
78407;BME280;67692;51.074;-1.790;2023-06-10T04:31:25;100662.25;;;16.39;69.93
78407;BME280;67692;51.074;-1.790;2023-06-10T04:33:51;100654.22;;;16.13;71.13
78407;BME280;67692;51.074;-1.790;2023-06-10T04:36:18;100659.59;;;16.11;71.24
78407;BME280;67692;51.074;-1.790;2023-06-10T04:38:45;100658.91;;;16.09;71.37
78407;BME280;67692;51.074;-1.790;2023-06-10T04:41:12;100653.97;;;16.06;71.41
78407;BME280;67692;51.074;-1.790;2023-06-10T04:43:38;100647.09;;;16.05;71.45
78407;BME280;67692;51.074;-1.790;2023-06-10T04:46:06;100646.69;;;16.00;71.80
78407;BME280;67692;51.074;-1.790;2023-06-10T04:48:33;100652.06;;;15.98;71.56
78407;BME280;67692;51.074;-1.790;2023-06-10T04:51:01;100644.38;;;15.97;71.91
78407;BME280;67692;51.074;-1.790;2023-06-10T04:53:27;100653.41;;;16.02;71.71
78407;BME280;67692;51.074;-1.790;2023-06-10T04:55:54;100648.19;;;16.12;71.22
78407;BME280;67692;51.074;-1.790;2023-06-10T04:58:22;100648.34;;;16.01;71.18
78407;BME280;67692;51.074;-1.790;2023-06-10T05:00:49;100648.34;;;16.01;71.72
78407;BME280;67692;51.074;-1.790;2023-06-10T05:03:17;100651.78;;;16.01;71.60
78407;BME280;67692;51.074;-1.790;2023-06-10T05:05:43;100641.91;;;15.95;72.06
78407;BME280;67692;51.074;-1.790;2023-06-10T05:08:10;100644.66;;;15.84;72.08
78407;BME280;67692;51.074;-1.790;2023-06-10T05:10:37;100647.53;;;15.91;72.29
78407;BME280;67692;51.074;-1.790;2023-06-10T05:13:03;100653.19;;;15.76;72.92
78407;BME280;67692;51.074;-1.790;2023-06-10T05:15:30;100651.00;;;15.82;73.01
78407;BME280;67692;51.074;-1.790;2023-06-10T05:17:57;100646.03;;;15.88;72.52
78407;BME280;67692;51.074;-1.790;2023-06-10T05:20:25;100650.28;;;15.99;72.20
78407;BME280;67692;51.074;-1.790;2023-06-10T05:22:53;100656.16;;;16.01;72.06
78407;BME280;67692;51.074;-1.790;2023-06-10T05:25:20;100651.47;;;16.04;71.94
78407;BME280;67692;51.074;-1.790;2023-06-10T05:27:47;100651.53;;;15.95;72.21
78407;BME280;67692;51.074;-1.790;2023-06-10T05:30:13;100650.56;;;15.96;72.57
78407;BME280;67692;51.074;-1.790;2023-06-10T05:32:40;100642.81;;;16.04;72.46
78407;BME280;67692;51.074;-1.790;2023-06-10T05:35:07;100647.22;;;16.13;72.44
78407;BME280;67692;51.074;-1.790;2023-06-10T05:37:35;100654.59;;;16.18;72.12
78407;BME280;67692;51.074;-1.790;2023-06-10T05:40:02;100651.69;;;16.30;71.78
78407;BME280;67692;51.074;-1.790;2023-06-10T05:42:29;100652.84;;;16.46;71.11
78407;BME280;67692;51.074;-1.790;2023-06-10T05:44:56;100660.41;;;16.49;71.07
78407;BME280;67692;51.074;-1.790;2023-06-10T05:47:22;100666.72;;;16.56;71.14
78407;BME280;67692;51.074;-1.790;2023-06-10T05:49:49;100662.53;;;16.63;70.64
78407;BME280;67692;51.074;-1.790;2023-06-10T05:52:17;100665.28;;;16.61;70.70
78407;BME280;67692;51.074;-1.790;2023-06-10T05:54:45;100676.31;;;16.65;70.73
78407;BME280;67692;51.074;-1.790;2023-06-10T05:57:11;100670.28;;;16.55;71.05
78407;BME280;67692;51.074;-1.790;2023-06-10T05:59:38;100672.72;;;16.66;70.43
78407;BME280;67692;51.074;-1.790;2023-06-10T06:02:05;100679.63;;;16.67;70.25
78407;BME280;67692;51.074;-1.790;2023-06-10T06:04:32;100679.03;;;16.73;69.84
78407;BME280;67692;51.074;-1.790;2023-06-10T06:06:58;100682.56;;;16.82;70.03
78407;BME280;67692;51.074;-1.790;2023-06-10T06:09:25;100688.63;;;16.82;70.06
78407;BME280;67692;51.074;-1.790;2023-06-10T06:11:53;100696.03;;;16.87;69.61
78407;BME280;67692;51.074;-1.790;2023-06-10T06:14:19;100699.88;;;16.92;69.42
78407;BME280;67692;51.074;-1.790;2023-06-10T06:16:46;100699.88;;;16.92;69.56
78407;BME280;67692;51.074;-1.790;2023-06-10T06:19:12;100698.97;;;17.02;69.44
78407;BME280;67692;51.074;-1.790;2023-06-10T06:21:39;100701.38;;;17.13;69.00
78407;BME280;67692;51.074;-1.790;2023-06-10T06:24:06;100699.13;;;17.18;68.55
78407;BME280;67692;51.074;-1.790;2023-06-10T06:26:33;100693.75;;;17.19;68.49
78407;BME280;67692;51.074;-1.790;2023-06-10T06:29:01;100699.25;;;17.26;68.57
78407;BME280;67692;51.074;-1.790;2023-06-10T06:31:28;100694.88;;;17.17;68.52
78407;BME280;67692;51.074;-1.790;2023-06-10T06:33:54;100698.56;;;17.24;68.08
78407;BME280;67692;51.074;-1.790;2023-06-10T06:36:21;100694.97;;;17.25;68.45
78407;BME280;67692;51.074;-1.790;2023-06-10T06:38:47;100693.09;;;17.35;68.17
78407;BME280;67692;51.074;-1.790;2023-06-10T06:41:14;100697.75;;;17.41;67.99
78407;BME280;67692;51.074;-1.790;2023-06-10T06:43:40;100699.38;;;17.42;67.94
78407;BME280;67692;51.074;-1.790;2023-06-10T06:46:09;100699.47;;;17.50;67.52
78407;BME280;67692;51.074;-1.790;2023-06-10T06:48:36;100702.22;;;17.49;67.51
78407;BME280;67692;51.074;-1.790;2023-06-10T06:51:02;100701.41;;;17.48;67.43
78407;BME280;67692;51.074;-1.790;2023-06-10T06:53:29;100699.22;;;17.44;67.79
78407;BME280;67692;51.074;-1.790;2023-06-10T06:55:56;100701.69;;;17.45;67.89
78407;BME280;67692;51.074;-1.790;2023-06-10T06:58:23;100695.56;;;17.54;67.77
78407;BME280;67692;51.074;-1.790;2023-06-10T07:00:49;100698.72;;;17.58;67.28
78407;BME280;67692;51.074;-1.790;2023-06-10T07:03:17;100697.72;;;17.59;67.31
78407;BME280;67692;51.074;-1.790;2023-06-10T07:05:44;100694.66;;;17.64;67.69
78407;BME280;67692;51.074;-1.790;2023-06-10T07:08:11;100703.63;;;17.61;67.54
78407;BME280;67692;51.074;-1.790;2023-06-10T07:10:37;100699.59;;;17.67;67.63
78407;BME280;67692;51.074;-1.790;2023-06-10T07:13:04;100706.56;;;17.76;67.54
78407;BME280;67692;51.074;-1.790;2023-06-10T07:15:30;100699.47;;;17.86;67.38
78407;BME280;67692;51.074;-1.790;2023-06-10T07:17:58;100695.53;;;17.90;67.31
78407;BME280;67692;51.074;-1.790;2023-06-10T07:20:25;100707.59;;;18.01;67.16
78407;BME280;67692;51.074;-1.790;2023-06-10T07:22:52;100707.78;;;18.07;65.86
78407;BME280;67692;51.074;-1.790;2023-06-10T07:25:19;100712.41;;;18.13;65.94
78407;BME280;67692;51.074;-1.790;2023-06-10T07:27:45;100712.09;;;18.17;66.17
78407;BME280;67692;51.074;-1.790;2023-06-10T07:30:12;100716.84;;;18.13;66.65
78407;BME280;67692;51.074;-1.790;2023-06-10T07:32:39;100723.25;;;18.19;66.13
78407;BME280;67692;51.074;-1.790;2023-06-10T07:35:08;100723.31;;;18.27;66.14
78407;BME280;67692;51.074;-1.790;2023-06-10T07:37:37;100717.28;;;18.34;65.54
78407;BME280;67692;51.074;-1.790;2023-06-10T07:40:04;100718.16;;;18.43;65.58
78407;BME280;67692;51.074;-1.790;2023-06-10T07:42:31;100720.81;;;18.51;65.83
78407;BME280;67692;51.074;-1.790;2023-06-10T07:44:58;100718.91;;;18.61;65.75
78407;BME280;67692;51.074;-1.790;2023-06-10T07:47:24;100722.78;;;18.75;64.57
78407;BME280;67692;51.074;-1.790;2023-06-10T07:49:51;100719.31;;;18.66;65.05
78407;BME280;67692;51.074;-1.790;2023-06-10T07:52:18;100717.19;;;18.70;65.51
78407;BME280;67692;51.074;-1.790;2023-06-10T07:54:46;100711.50;;;18.83;65.01
78407;BME280;67692;51.074;-1.790;2023-06-10T07:57:12;100715.75;;;18.84;64.93
78407;BME280;67692;51.074;-1.790;2023-06-10T07:59:39;100715.44;;;18.95;64.95
78407;BME280;67692;51.074;-1.790;2023-06-10T08:02:05;100704.94;;;18.95;64.74
78407;BME280;67692;51.074;-1.790;2023-06-10T08:04:32;100709.72;;;18.91;64.63
78407;BME280;67692;51.074;-1.790;2023-06-10T08:07:00;100708.56;;;18.94;65.03
78407;BME280;67692;51.074;-1.790;2023-06-10T08:09:27;100695.31;;;19.03;64.71
78407;BME280;67692;51.074;-1.790;2023-06-10T08:11:55;100698.59;;;19.06;64.98
78407;BME280;67692;51.074;-1.790;2023-06-10T08:14:22;100700.22;;;19.07;64.58
78407;BME280;67692;51.074;-1.790;2023-06-10T08:16:48;100692.38;;;19.15;64.67
78407;BME280;67692;51.074;-1.790;2023-06-10T08:19:15;100692.38;;;19.23;64.70
78407;BME280;67692;51.074;-1.790;2023-06-10T08:21:42;100711.44;;;19.33;64.24
78407;BME280;67692;51.074;-1.790;2023-06-10T08:24:09;100696.84;;;19.30;64.25
78407;BME280;67692;51.074;-1.790;2023-06-10T08:26:36;100706.53;;;19.30;63.91
78407;BME280;67692;51.074;-1.790;2023-06-10T08:29:03;100704.22;;;19.35;64.22
78407;BME280;67692;51.074;-1.790;2023-06-10T08:31:30;100707.69;;;19.44;64.23
78407;BME280;67692;51.074;-1.790;2023-06-10T08:33:57;100712.03;;;19.69;63.35
78407;BME280;67692;51.074;-1.790;2023-06-10T08:36:23;100710.03;;;19.71;63.12
78407;BME280;67692;51.074;-1.790;2023-06-10T08:38:50;100710.38;;;19.68;62.89
78407;BME280;67692;51.074;-1.790;2023-06-10T08:41:17;100710.69;;;19.73;63.12
78407;BME280;67692;51.074;-1.790;2023-06-10T08:43:48;100714.47;;;19.79;63.34
78407;BME280;67692;51.074;-1.790;2023-06-10T08:46:19;100710.84;;;19.88;62.86
78407;BME280;67692;51.074;-1.790;2023-06-10T08:48:47;100724.47;;;20.00;63.02
78407;BME280;67692;51.074;-1.790;2023-06-10T08:51:16;100718.72;;;19.96;62.86
78407;BME280;67692;51.074;-1.790;2023-06-10T08:53:48;100712.16;;;19.92;63.15
78407;BME280;67692;51.074;-1.790;2023-06-10T08:56:17;100705.41;;;20.06;62.92
78407;BME280;67692;51.074;-1.790;2023-06-10T08:58:44;100714.94;;;20.15;62.75
78407;BME280;67692;51.074;-1.790;2023-06-10T09:01:12;100702.25;;;20.18;62.65
78407;BME280;67692;51.074;-1.790;2023-06-10T09:03:41;100710.16;;;20.27;62.41
78407;BME280;67692;51.074;-1.790;2023-06-10T09:06:08;100712.44;;;20.30;62.41
78407;BME280;67692;51.074;-1.790;2023-06-10T09:08:36;100710.28;;;20.33;62.25
78407;BME280;67692;51.074;-1.790;2023-06-10T09:11:03;100707.47;;;20.35;62.58
78407;BME280;67692;51.074;-1.790;2023-06-10T09:13:29;100711.25;;;20.40;62.48
78407;BME280;67692;51.074;-1.790;2023-06-10T09:15:56;100711.25;;;20.48;62.29
78407;BME280;67692;51.074;-1.790;2023-06-10T09:18:26;100712.22;;;20.56;62.20
78407;BME280;67692;51.074;-1.790;2023-06-10T09:20:54;100719.72;;;20.75;61.93
78407;BME280;67692;51.074;-1.790;2023-06-10T09:23:21;100714.91;;;20.87;61.94
78407;BME280;67692;51.074;-1.790;2023-06-10T09:25:56;100714.84;;;20.95;61.47
78407;BME280;67692;51.074;-1.790;2023-06-10T09:28:23;100716.16;;;20.99;60.69
78407;BME280;67692;51.074;-1.790;2023-06-10T09:30:49;100712.94;;;21.12;61.07
78407;BME280;67692;51.074;-1.790;2023-06-10T09:33:16;100722.72;;;21.34;59.45
78407;BME280;67692;51.074;-1.790;2023-06-10T09:35:47;100721.06;;;21.33;59.17
78407;BME280;67692;51.074;-1.790;2023-06-10T09:38:19;100717.72;;;21.39;59.20
78407;BME280;67692;51.074;-1.790;2023-06-10T09:40:50;100711.31;;;21.42;59.27
78407;BME280;67692;51.074;-1.790;2023-06-10T09:43:17;100710.50;;;21.41;59.38
78407;BME280;67692;51.074;-1.790;2023-06-10T09:45:47;100710.31;;;21.43;59.65
78407;BME280;67692;51.074;-1.790;2023-06-10T09:48:14;100710.22;;;21.51;59.63
78407;BME280;67692;51.074;-1.790;2023-06-10T09:50:42;100711.00;;;21.59;59.18
78407;BME280;67692;51.074;-1.790;2023-06-10T09:53:11;100705.91;;;21.58;59.10
78407;BME280;67692;51.074;-1.790;2023-06-10T09:55:39;100709.81;;;21.62;58.64
78407;BME280;67692;51.074;-1.790;2023-06-10T09:58:07;100709.19;;;21.60;59.13
78407;BME280;67692;51.074;-1.790;2023-06-10T10:00:34;100712.34;;;21.55;59.55
78407;BME280;67692;51.074;-1.790;2023-06-10T10:03:00;100710.00;;;21.60;58.88
78407;BME280;67692;51.074;-1.790;2023-06-10T10:05:27;100710.91;;;21.67;59.41
78407;BME280;67692;51.074;-1.790;2023-06-10T10:07:55;100714.50;;;21.75;59.63
78407;BME280;67692;51.074;-1.790;2023-06-10T10:10:21;100717.34;;;21.88;59.51
78407;BME280;67692;51.074;-1.790;2023-06-10T10:12:52;100719.44;;;21.92;59.08
78407;BME280;67692;51.074;-1.790;2023-06-10T10:15:21;100711.47;;;22.01;58.58
78407;BME280;67692;51.074;-1.790;2023-06-10T10:17:52;100700.03;;;22.08;58.77
78407;BME280;67692;51.074;-1.790;2023-06-10T10:20:24;100718.13;;;22.11;58.20
78407;BME280;67692;51.074;-1.790;2023-06-10T10:22:56;100713.16;;;22.16;59.21
78407;BME280;67692;51.074;-1.790;2023-06-10T10:25:23;100714.06;;;22.23;59.21
78407;BME280;67692;51.074;-1.790;2023-06-10T10:27:57;100708.78;;;22.23;59.14
78407;BME280;67692;51.074;-1.790;2023-06-10T10:30:25;100713.63;;;22.35;58.47
78407;BME280;67692;51.074;-1.790;2023-06-10T10:32:57;100714.69;;;22.40;58.93
78407;BME280;67692;51.074;-1.790;2023-06-10T10:35:25;100719.63;;;22.58;57.65
78407;BME280;67692;51.074;-1.790;2023-06-10T10:37:53;100714.69;;;22.55;58.09
78407;BME280;67692;51.074;-1.790;2023-06-10T10:40:20;100712.22;;;22.68;57.87
78407;BME280;67692;51.074;-1.790;2023-06-10T10:42:48;100715.84;;;22.82;57.50
78407;BME280;67692;51.074;-1.790;2023-06-10T10:45:17;100709.31;;;22.78;57.50
78407;BME280;67692;51.074;-1.790;2023-06-10T10:47:45;100703.41;;;22.91;58.06
78407;BME280;67692;51.074;-1.790;2023-06-10T10:50:16;100706.03;;;22.91;58.24
78407;BME280;67692;51.074;-1.790;2023-06-10T10:52:51;100707.06;;;23.11;57.81
78407;BME280;67692;51.074;-1.790;2023-06-10T10:55:19;100714.75;;;23.27;56.97
78407;BME280;67692;51.074;-1.790;2023-06-10T10:57:53;100706.38;;;23.24;56.74
78407;BME280;67692;51.074;-1.790;2023-06-10T11:00:27;100710.81;;;23.17;55.81
78407;BME280;67692;51.074;-1.790;2023-06-10T11:02:58;100710.84;;;23.23;56.27
78407;BME280;67692;51.074;-1.790;2023-06-10T11:05:37;100706.34;;;23.38;55.60
78407;BME280;67692;51.074;-1.790;2023-06-10T11:08:04;100712.56;;;23.52;55.53
78407;BME280;67692;51.074;-1.790;2023-06-10T11:10:33;100712.38;;;23.54;55.26
78407;BME280;67692;51.074;-1.790;2023-06-10T11:13:00;100713.34;;;23.46;55.24
78407;BME280;67692;51.074;-1.790;2023-06-10T11:15:28;100713.97;;;23.48;55.44
78407;BME280;67692;51.074;-1.790;2023-06-10T11:18:23;100709.53;;;23.55;55.80
78407;BME280;67692;51.074;-1.790;2023-06-10T11:21:00;100712.59;;;23.73;55.75
78407;BME280;67692;51.074;-1.790;2023-06-10T11:23:33;100710.50;;;23.97;55.44
78407;BME280;67692;51.074;-1.790;2023-06-10T11:26:30;100711.44;;;24.11;54.97
78407;BME280;67692;51.074;-1.790;2023-06-10T11:29:07;100703.47;;;24.39;54.06
78407;BME280;67692;51.074;-1.790;2023-06-10T11:31:43;100708.84;;;24.52;53.89
78407;BME280;67692;51.074;-1.790;2023-06-10T11:34:10;100713.19;;;24.59;53.69
78407;BME280;67692;51.074;-1.790;2023-06-10T11:36:38;100705.22;;;24.59;53.13
78407;BME280;67692;51.074;-1.790;2023-06-10T11:39:08;100711.75;;;24.63;53.35
78407;BME280;67692;51.074;-1.790;2023-06-10T11:41:36;100704.03;;;24.69;53.35
78407;BME280;67692;51.074;-1.790;2023-06-10T11:44:04;100706.06;;;24.67;53.64
78407;BME280;67692;51.074;-1.790;2023-06-10T11:46:33;100715.69;;;24.81;54.25
78407;BME280;67692;51.074;-1.790;2023-06-10T11:49:02;100704.53;;;24.92;53.23
78407;BME280;67692;51.074;-1.790;2023-06-10T11:51:31;100716.75;;;24.93;53.58
78407;BME280;67692;51.074;-1.790;2023-06-10T11:53:58;100708.56;;;24.88;53.33
78407;BME280;67692;51.074;-1.790;2023-06-10T11:56:26;100713.50;;;24.91;53.57
78407;BME280;67692;51.074;-1.790;2023-06-10T11:58:53;100705.50;;;24.78;53.44
78407;BME280;67692;51.074;-1.790;2023-06-10T12:01:21;100704.88;;;24.76;54.03
78407;BME280;67692;51.074;-1.790;2023-06-10T12:03:50;100701.03;;;24.78;53.51
78407;BME280;67692;51.074;-1.790;2023-06-10T12:06:24;100704.50;;;24.85;54.13
78407;BME280;67692;51.074;-1.790;2023-06-10T12:08:50;100702.53;;;25.01;54.00
78407;BME280;67692;51.074;-1.790;2023-06-10T12:11:17;100699.09;;;25.13;53.71
78407;BME280;67692;51.074;-1.790;2023-06-10T12:13:45;100698.09;;;25.28;54.00
78407;BME280;67692;51.074;-1.790;2023-06-10T12:16:13;100700.59;;;25.36;53.86
78407;BME280;67692;51.074;-1.790;2023-06-10T12:18:42;100698.56;;;25.51;53.41
78407;BME280;67692;51.074;-1.790;2023-06-10T12:21:19;100702.03;;;25.98;52.03
78407;BME280;67692;51.074;-1.790;2023-06-10T12:24:08;100701.44;;;25.96;52.23
78407;BME280;67692;51.074;-1.790;2023-06-10T12:26:40;100694.69;;;26.00;51.90
78407;BME280;67692;51.074;-1.790;2023-06-10T12:29:27;100702.03;;;25.98;52.37
78407;BME280;67692;51.074;-1.790;2023-06-10T12:31:56;100705.50;;;26.05;51.40
78407;BME280;67692;51.074;-1.790;2023-06-10T12:34:34;100694.69;;;26.00;52.10
78407;BME280;67692;51.074;-1.790;2023-06-10T12:37:02;100691.22;;;26.06;51.96
78407;BME280;67692;51.074;-1.790;2023-06-10T12:39:31;100685.47;;;26.02;51.83
78407;BME280;67692;51.074;-1.790;2023-06-10T12:41:58;100690.22;;;25.94;51.68
78407;BME280;67692;51.074;-1.790;2023-06-10T12:44:32;100689.59;;;25.92;51.42